createdAt,value
2023-03-03T00:00:46.691Z,77.96
2023-03-03T00:01:48.998Z,77.53
2023-03-03T00:02:51.254Z,77.53
2023-03-03T00:03:54.127Z,77.77
2023-03-03T00:04:56.727Z,78.06
2023-03-03T00:05:59.865Z,78.15
2023-03-03T00:07:02.669Z,78.27
2023-03-03T00:08:05.208Z,77.73
2023-03-03T00:09:07.621Z,78.04
2023-03-03T00:10:14.691Z,78.04
2023-03-03T00:11:18.075Z,78.25
2023-03-03T00:12:29.491Z,78.54
2023-03-03T00:13:33.253Z,78.51
2023-03-03T00:14:35.831Z,78.33
2023-03-03T00:15:39.407Z,78.08
2023-03-03T00:16:43.603Z,78.18
2023-03-03T00:17:47.140Z,78.59
2023-03-03T00:18:50.704Z,78.74
2023-03-03T00:19:54.474Z,78.71
2023-03-03T00:21:03.696Z,78.48
2023-03-03T00:22:09.640Z,78.56
2023-03-03T00:23:18.443Z,78.50
2023-03-03T00:24:36.396Z,78.50
2023-03-03T00:25:42.604Z,78.16
2023-03-03T00:26:51.320Z,78.52
2023-03-03T00:27:54.091Z,78.85
2023-03-03T00:28:56.870Z,78.59
2023-03-03T00:30:00.751Z,78.53
2023-03-03T00:31:07.488Z,78.93
2023-03-03T00:32:14.117Z,78.88
2023-03-03T00:33:23.306Z,78.89
2023-03-03T00:34:27.963Z,78.64
2023-03-03T00:35:35.874Z,78.58
2023-03-03T00:36:39.347Z,78.55
2023-03-03T00:37:41.872Z,78.64
2023-03-03T00:38:44.383Z,78.84
2023-03-03T00:39:46.855Z,78.83
2023-03-03T00:40:50.182Z,78.66
2023-03-03T00:41:53.756Z,78.71
2023-03-03T00:42:59.744Z,78.59
2023-03-03T00:44:05.800Z,78.87
2023-03-03T00:45:18.807Z,78.87
2023-03-03T00:46:23.085Z,79.14
2023-03-03T00:47:31.396Z,79.26
2023-03-03T00:48:40.426Z,79.42
2023-03-03T00:49:43.440Z,79.59
2023-03-03T00:50:46.865Z,79.47
2023-03-03T00:51:49.912Z,79.60
2023-03-03T00:53:05.279Z,79.70
2023-03-03T00:54:08.092Z,79.68
2023-03-03T00:55:10.777Z,79.89
2023-03-03T00:56:15.384Z,79.87
2023-03-03T00:57:18.106Z,80.03
2023-03-03T00:58:22.159Z,80.12
2023-03-03T00:59:25.421Z,80.20
2023-03-03T01:00:28.145Z,80.19
2023-03-03T01:01:31.147Z,80.30
2023-03-03T01:02:33.807Z,80.09
2023-03-03T01:03:36.496Z,79.80
2023-03-03T01:04:41.655Z,79.91
2023-03-03T01:05:44.638Z,80.29
2023-03-03T01:06:47.264Z,80.29
2023-03-03T01:07:49.626Z,80.18
2023-03-03T01:08:52.676Z,80.08
2023-03-03T01:09:55.151Z,79.94
2023-03-03T01:11:07.371Z,80.15
2023-03-03T01:12:10.893Z,79.88
2023-03-03T01:13:13.833Z,79.52
2023-03-03T01:14:16.945Z,79.54
2023-03-03T01:15:19.422Z,79.36
2023-03-03T01:16:23.548Z,79.21
2023-03-03T01:17:26.564Z,79.11
2023-03-03T01:18:31.629Z,78.78
2023-03-03T01:19:34.140Z,79.13
2023-03-03T01:20:36.889Z,78.93
2023-03-03T01:21:39.522Z,78.97
2023-03-03T01:22:42.235Z,78.64
2023-03-03T01:23:46.059Z,78.66
2023-03-03T01:24:49.741Z,78.44
2023-03-03T01:25:52.289Z,78.07
2023-03-03T01:26:54.865Z,78.00
2023-03-03T01:27:58.577Z,78.31
2023-03-03T01:29:00.849Z,78.66
2023-03-03T01:30:05.534Z,79.21
2023-03-03T01:31:08.165Z,79.23
2023-03-03T01:32:11.049Z,79.22
2023-03-03T01:33:13.682Z,79.37
2023-03-03T01:34:16.687Z,79.32
2023-03-03T01:35:20.698Z,79.63
2023-03-03T01:36:28.326Z,79.56
2023-03-03T01:37:30.833Z,79.43
2023-03-03T01:38:35.662Z,79.82
2023-03-03T01:39:38.992Z,79.96
2023-03-03T01:40:41.775Z,79.69
2023-03-03T01:41:44.153Z,79.48
2023-03-03T01:42:46.922Z,79.68
2023-03-03T01:43:50.505Z,79.83
2023-03-03T01:45:11.637Z,79.94
2023-03-03T01:46:39.583Z,80.21
2023-03-03T01:47:54.548Z,80.16
2023-03-03T01:49:03.434Z,80.58
2023-03-03T01:50:12.960Z,80.50
2023-03-03T01:51:27.839Z,80.56
2023-03-03T01:52:37.243Z,80.61
2023-03-03T01:54:58.045Z,80.78
2023-03-03T01:56:02.665Z,80.96
2023-03-03T01:57:08.754Z,80.93
2023-03-03T01:58:24.027Z,80.92
2023-03-03T01:59:36.102Z,81.18
2023-03-03T02:00:41.779Z,81.50
2023-03-03T02:01:46.673Z,81.76
2023-03-03T02:02:49.649Z,81.69
2023-03-03T02:03:52.842Z,81.77
2023-03-03T02:04:55.767Z,81.80
2023-03-03T02:06:02.994Z,81.91
2023-03-03T02:07:10.968Z,81.90
2023-03-03T02:08:17.081Z,81.96
2023-03-03T02:09:41.705Z,82.01
2023-03-03T02:10:46.272Z,82.16
2023-03-03T02:11:52.145Z,82.38
2023-03-03T02:12:57.463Z,82.41
2023-03-03T02:14:00.132Z,82.41
2023-03-03T02:15:04.345Z,82.50
2023-03-03T02:16:08.224Z,82.35
2023-03-03T02:17:13.373Z,82.34
2023-03-03T02:18:19.308Z,82.35
2023-03-03T02:19:28.174Z,82.11
2023-03-03T02:20:55.532Z,82.02
2023-03-03T02:22:01.532Z,81.76
2023-03-03T02:24:37.172Z,81.42
2023-03-03T02:25:47.349Z,81.53
2023-03-03T02:26:50.366Z,81.76
2023-03-03T02:27:52.968Z,81.68
2023-03-03T02:28:57.365Z,81.53
2023-03-03T02:30:08.778Z,81.48
2023-03-03T02:31:15.284Z,81.52
2023-03-03T02:32:18.437Z,81.67
2023-03-03T02:33:22.290Z,80.71
2023-03-03T02:34:24.624Z,80.41
2023-03-03T02:35:35.134Z,80.04
2023-03-03T02:36:39.730Z,80.04
2023-03-03T02:37:43.104Z,80.10
2023-03-03T02:38:58.274Z,80.02
2023-03-03T02:40:03.797Z,80.00
2023-03-03T02:41:24.935Z,80.02
2023-03-03T02:42:31.143Z,80.23
2023-03-03T02:43:43.443Z,80.14
2023-03-03T02:44:46.363Z,80.29
2023-03-03T02:45:49.094Z,80.22
2023-03-03T02:46:53.586Z,80.03
2023-03-03T02:47:56.366Z,79.79
2023-03-03T02:48:58.859Z,79.89
2023-03-03T02:50:02.419Z,80.17
2023-03-03T02:51:05.489Z,79.60
2023-03-03T02:52:10.232Z,79.21
2023-03-03T02:53:14.142Z,79.51
2023-03-03T02:54:19.423Z,79.55
2023-03-03T02:55:22.536Z,79.75
2023-03-03T02:56:25.102Z,80.02
2023-03-03T02:57:27.677Z,80.37
2023-03-03T02:58:30.557Z,80.18
2023-03-03T02:59:33.303Z,80.02
2023-03-03T03:00:37.823Z,80.26
2023-03-03T03:01:40.490Z,79.82
2023-03-03T03:02:44.930Z,79.96
2023-03-03T03:03:48.155Z,79.29
2023-03-03T03:04:53.144Z,78.81
2023-03-03T03:05:57.807Z,78.70
2023-03-03T03:07:00.916Z,78.84
2023-03-03T03:08:04.810Z,78.86
2023-03-03T03:09:09.050Z,79.09
2023-03-03T03:10:12.152Z,79.25
2023-03-03T03:11:15.675Z,79.49
2023-03-03T03:12:20.389Z,79.62
2023-03-03T03:13:25.312Z,80.11
2023-03-03T03:14:28.213Z,80.30
2023-03-03T03:15:30.789Z,80.46
2023-03-03T03:16:34.558Z,80.47
2023-03-03T03:17:38.791Z,80.77
2023-03-03T03:18:41.524Z,81.18
2023-03-03T03:19:44.095Z,81.49
2023-03-03T03:20:48.525Z,81.83
2023-03-03T03:21:52.349Z,81.88
2023-03-03T03:22:56.147Z,81.94
2023-03-03T03:23:59.230Z,81.69
2023-03-03T03:25:02.058Z,81.50
2023-03-03T03:26:06.395Z,81.16
2023-03-03T03:27:09.034Z,81.15
2023-03-03T03:28:12.295Z,81.37
2023-03-03T03:29:14.869Z,81.57
2023-03-03T03:30:19.908Z,81.86
2023-03-03T03:31:22.981Z,81.90
2023-03-03T03:32:25.559Z,81.90
2023-03-03T03:33:28.305Z,82.01
2023-03-03T03:34:31.949Z,81.91
2023-03-03T03:35:35.587Z,81.78
2023-03-03T03:36:39.271Z,82.06
2023-03-03T03:37:43.347Z,82.10
2023-03-03T03:38:46.074Z,82.21
2023-03-03T03:39:48.555Z,82.35
2023-03-03T03:40:53.748Z,82.42
2023-03-03T03:41:56.289Z,82.50
2023-03-03T03:42:58.558Z,82.51
2023-03-03T03:44:01.402Z,82.61
2023-03-03T03:45:06.010Z,82.64
2023-03-03T03:46:09.215Z,82.61
2023-03-03T03:47:12.876Z,82.54
2023-03-03T03:48:16.893Z,82.43
2023-03-03T03:49:20.907Z,82.31
2023-03-03T03:50:24.595Z,82.31
2023-03-03T03:51:27.355Z,82.51
2023-03-03T03:52:30.032Z,82.57
2023-03-03T03:53:32.537Z,82.64
2023-03-03T03:54:35.632Z,82.83
2023-03-03T03:55:38.475Z,82.86
2023-03-03T03:56:41.477Z,82.74
2023-03-03T03:57:44.143Z,82.88
2023-03-03T03:58:46.591Z,83.21
2023-03-03T03:59:49.969Z,83.14
2023-03-03T04:00:53.015Z,83.07
2023-03-03T04:01:55.466Z,83.01
2023-03-03T04:02:58.239Z,82.88
2023-03-03T04:04:02.444Z,82.81
2023-03-03T04:05:05.777Z,82.92
2023-03-03T04:06:08.500Z,82.87
2023-03-03T04:07:14.789Z,82.96
2023-03-03T04:08:18.113Z,83.17
2023-03-03T04:09:20.670Z,83.10
2023-03-03T04:10:24.308Z,83.21
2023-03-03T04:11:26.743Z,83.30
2023-03-03T04:12:29.454Z,83.23
2023-03-03T04:13:34.363Z,83.25
2023-03-03T04:14:37.252Z,83.34
2023-03-03T04:15:41.280Z,83.26
2023-03-03T04:16:43.773Z,83.16
2023-03-03T04:17:46.837Z,83.21
2023-03-03T04:18:49.654Z,83.09
2023-03-03T04:19:55.005Z,82.96
2023-03-03T04:20:57.962Z,83.04
2023-03-03T04:22:00.655Z,82.97
2023-03-03T04:23:03.096Z,82.90
2023-03-03T04:24:06.739Z,83.03
2023-03-03T04:25:14.150Z,82.96
2023-03-03T04:26:18.563Z,82.90
2023-03-03T04:27:22.566Z,82.76
2023-03-03T04:28:26.754Z,82.72
2023-03-03T04:29:29.665Z,82.83
2023-03-03T04:30:33.761Z,82.75
2023-03-03T04:31:36.604Z,82.82
2023-03-03T04:32:39.683Z,82.76
2023-03-03T04:33:43.824Z,82.72
2023-03-03T04:34:48.997Z,82.64
2023-03-03T04:35:51.051Z,82.69
2023-03-03T04:36:56.234Z,82.59
2023-03-03T04:37:58.621Z,82.48
2023-03-03T04:39:01.678Z,82.43
2023-03-03T04:40:07.665Z,82.54
2023-03-03T04:41:10.879Z,82.60
2023-03-03T04:42:14.009Z,82.45
2023-03-03T04:43:16.766Z,82.48
2023-03-03T04:44:19.227Z,82.59
2023-03-03T04:45:21.772Z,82.71
2023-03-03T04:46:24.644Z,82.85
2023-03-03T04:47:28.353Z,82.52
2023-03-03T04:48:30.994Z,82.18
2023-03-03T04:49:33.496Z,81.97
2023-03-03T04:50:36.408Z,81.93
2023-03-03T04:51:39.081Z,81.92
2023-03-03T04:52:42.062Z,81.94
2023-03-03T04:53:44.582Z,81.93
2023-03-03T04:54:46.941Z,81.68
2023-03-03T04:55:53.145Z,81.77
2023-03-03T04:56:56.470Z,81.30
2023-03-03T04:57:59.156Z,81.21
2023-03-03T04:59:01.605Z,81.34
2023-03-03T05:00:06.533Z,81.53
2023-03-03T05:01:14.307Z,81.54
2023-03-03T05:02:17.311Z,81.62
2023-03-03T05:03:20.014Z,81.67
2023-03-03T05:04:22.549Z,81.94
2023-03-03T05:05:25.019Z,81.79
2023-03-03T05:06:27.409Z,82.13
2023-03-03T05:07:30.785Z,82.13
2023-03-03T05:08:33.765Z,81.85
2023-03-03T05:09:37.190Z,81.56
2023-03-03T05:10:41.251Z,81.44
2023-03-03T05:11:43.612Z,81.31
2023-03-03T05:12:45.972Z,81.23
2023-03-03T05:13:50.717Z,81.04
2023-03-03T05:14:53.098Z,81.01
2023-03-03T05:15:56.376Z,80.63
2023-03-03T05:16:58.840Z,80.35
2023-03-03T05:18:04.085Z,80.38
2023-03-03T05:19:06.528Z,80.49
2023-03-03T05:20:11.457Z,80.30
2023-03-03T05:21:14.568Z,80.40
2023-03-03T05:22:17.687Z,80.23
2023-03-03T05:23:22.773Z,80.10
2023-03-03T05:24:25.120Z,80.20
2023-03-03T05:25:28.348Z,80.17
2023-03-03T05:26:30.773Z,79.92
2023-03-03T05:27:33.268Z,79.70
2023-03-03T05:28:35.511Z,79.61
2023-03-03T05:29:38.640Z,79.00
2023-03-03T05:30:41.241Z,78.58
2023-03-03T05:31:45.561Z,78.60
2023-03-03T05:32:48.106Z,78.58
2023-03-03T05:33:50.726Z,78.48
2023-03-03T05:34:53.477Z,78.10
2023-03-03T05:35:57.167Z,77.84
2023-03-03T05:36:59.682Z,77.76
2023-03-03T05:38:05.305Z,77.61
2023-03-03T05:39:08.216Z,77.59
2023-03-03T05:40:13.203Z,77.20
2023-03-03T05:41:15.856Z,76.83
2023-03-03T05:42:18.239Z,76.58
2023-03-03T05:43:20.527Z,76.71
2023-03-03T05:44:22.647Z,76.69
2023-03-03T05:45:24.896Z,76.65
2023-03-03T05:46:27.286Z,76.56
2023-03-03T05:47:29.576Z,76.80
2023-03-03T05:48:31.956Z,77.29
2023-03-03T05:49:34.777Z,77.49
2023-03-03T05:50:39.337Z,77.94
2023-03-03T05:51:42.347Z,78.17
2023-03-03T05:52:52.197Z,78.06
2023-03-03T05:53:56.471Z,77.96
2023-03-03T05:54:58.992Z,78.24
2023-03-03T05:56:01.349Z,77.76
2023-03-03T05:57:03.806Z,77.80
2023-03-03T05:58:06.380Z,77.49
2023-03-03T05:59:09.587Z,77.34
2023-03-03T06:00:13.656Z,77.36
2023-03-03T06:01:16.014Z,77.23
2023-03-03T06:02:18.884Z,76.65
2023-03-03T06:03:22.188Z,76.81
2023-03-03T06:04:24.545Z,77.13
2023-03-03T06:05:27.629Z,77.01
2023-03-03T06:06:30.462Z,77.05
2023-03-03T06:07:32.699Z,77.25
2023-03-03T06:08:35.038Z,77.09
2023-03-03T06:09:37.903Z,77.00
2023-03-03T06:10:40.653Z,76.48
2023-03-03T06:11:44.348Z,76.17
2023-03-03T06:12:46.706Z,76.42
2023-03-03T06:13:49.061Z,76.49
2023-03-03T06:14:52.318Z,76.74
2023-03-03T06:15:54.536Z,76.78
2023-03-03T06:16:57.606Z,76.43
2023-03-03T06:18:00.099Z,76.52
2023-03-03T06:19:02.460Z,76.85
2023-03-03T06:20:06.268Z,76.68
2023-03-03T06:21:08.799Z,75.81
2023-03-03T06:22:11.142Z,75.29
2023-03-03T06:23:13.499Z,75.01
2023-03-03T06:24:15.982Z,74.73
2023-03-03T06:25:19.033Z,75.06
2023-03-03T06:26:21.652Z,74.86
2023-03-03T06:27:24.002Z,74.74
2023-03-03T06:28:26.643Z,74.63
2023-03-03T06:29:29.052Z,75.13
2023-03-03T06:30:31.597Z,75.48
2023-03-03T06:31:35.133Z,75.22
2023-03-03T06:32:38.058Z,75.44
2023-03-03T06:33:42.675Z,75.61
2023-03-03T06:34:44.889Z,75.53
2023-03-03T06:35:51.920Z,75.15
2023-03-03T06:36:54.636Z,75.19
2023-03-03T06:37:58.064Z,75.17
2023-03-03T06:39:01.548Z,75.16
2023-03-03T06:40:05.863Z,75.05
2023-03-03T06:41:08.410Z,74.91
2023-03-03T06:42:10.758Z,74.70
2023-03-03T06:43:13.421Z,74.69
2023-03-03T06:44:15.814Z,73.55
2023-03-03T06:45:18.418Z,73.69
2023-03-03T06:46:21.030Z,73.35
2023-03-03T06:47:23.558Z,73.03
2023-03-03T06:48:26.194Z,72.99
2023-03-03T06:49:28.661Z,73.43
2023-03-03T06:50:31.426Z,73.94
2023-03-03T06:51:39.836Z,73.96
2023-03-03T06:52:42.458Z,73.79
2023-03-03T06:53:45.879Z,73.39
2023-03-03T06:54:49.233Z,73.07
2023-03-03T06:55:53.728Z,72.64
2023-03-03T06:57:02.877Z,72.03
2023-03-03T06:58:18.678Z,71.44
2023-03-03T06:59:22.756Z,71.04
2023-03-03T07:00:30.354Z,71.09
2023-03-03T07:01:35.349Z,71.19
2023-03-03T07:02:40.272Z,71.05
2023-03-03T07:03:44.534Z,71.16
2023-03-03T07:04:48.602Z,70.58
2023-03-03T07:05:52.790Z,70.51
2023-03-03T07:06:58.682Z,70.77
2023-03-03T07:08:01.178Z,70.78
2023-03-03T07:09:08.592Z,70.53
2023-03-03T07:10:31.450Z,70.60
2023-03-03T07:11:35.732Z,70.31
2023-03-03T07:12:38.306Z,70.12
2023-03-03T07:13:44.277Z,69.62
2023-03-03T07:14:51.512Z,69.49
2023-03-03T07:15:56.722Z,69.03
2023-03-03T07:17:05.910Z,68.92
2023-03-03T07:18:28.754Z,68.40
2023-03-03T07:19:35.999Z,68.37
2023-03-03T07:20:40.949Z,68.26
2023-03-03T07:21:43.347Z,68.37
2023-03-03T07:22:46.771Z,68.32
2023-03-03T07:23:51.917Z,68.48
2023-03-03T07:24:58.187Z,68.42
2023-03-03T07:26:00.626Z,68.31
2023-03-03T07:27:21.037Z,68.53
2023-03-03T07:28:26.134Z,68.15
2023-03-03T07:29:30.148Z,68.20
2023-03-03T07:30:32.972Z,67.51
2023-03-03T07:31:39.128Z,67.18
2023-03-03T07:32:43.459Z,67.11
2023-03-03T07:33:47.399Z,66.54
2023-03-03T07:34:52.468Z,66.67
2023-03-03T07:35:59.354Z,65.89
2023-03-03T07:37:06.188Z,66.68
2023-03-03T07:38:19.909Z,66.88
2023-03-03T07:39:28.931Z,65.78
2023-03-03T07:40:35.649Z,65.65
2023-03-03T07:41:38.607Z,65.46
2023-03-03T07:42:42.259Z,65.89
2023-03-03T07:43:54.042Z,65.16
2023-03-03T07:44:59.190Z,64.90
2023-03-03T07:46:05.413Z,65.28
2023-03-03T07:47:32.042Z,64.89
2023-03-03T07:48:42.120Z,64.57
2023-03-03T07:49:45.760Z,63.88
2023-03-03T07:50:49.543Z,63.48
2023-03-03T07:51:57.450Z,63.26
2023-03-03T07:53:01.966Z,63.31
2023-03-03T07:54:31.053Z,63.35
2023-03-03T07:55:39.119Z,63.14
2023-03-03T07:56:41.906Z,62.31
2023-03-03T07:57:45.316Z,62.59
2023-03-03T07:58:48.495Z,63.51
2023-03-03T08:00:03.501Z,63.61
2023-03-03T08:01:31.174Z,62.96
2023-03-03T08:02:42.920Z,62.64
2023-03-03T08:03:48.939Z,62.96
2023-03-03T08:04:52.066Z,60.81
2023-03-03T08:05:55.071Z,60.49
2023-03-03T08:07:00.504Z,61.14
2023-03-03T08:08:31.052Z,60.40
2023-03-03T08:09:46.216Z,59.66
2023-03-03T08:10:56.218Z,59.16
2023-03-03T08:12:09.888Z,59.05
2023-03-03T08:13:21.760Z,58.17
2023-03-03T08:14:34.767Z,58.05
2023-03-03T08:15:38.169Z,58.35
2023-03-03T08:16:41.710Z,58.65
2023-03-03T08:17:45.357Z,63.83
2023-03-03T08:18:50.353Z,59.70
2023-03-03T08:19:55.371Z,64.49
2023-03-03T08:21:00.744Z,59.41
2023-03-03T08:22:21.741Z,59.34
2023-03-03T08:23:25.101Z,59.33
2023-03-03T08:24:28.772Z,62.33
2023-03-03T08:25:31.080Z,61.13
2023-03-03T08:26:33.838Z,61.13
2023-03-03T08:27:36.459Z,58.62
2023-03-03T08:28:38.936Z,57.94
2023-03-03T08:29:42.458Z,57.99
2023-03-03T08:30:47.146Z,58.75
2023-03-03T08:31:49.566Z,58.98
2023-03-03T08:32:52.631Z,61.43
2023-03-03T08:33:55.623Z,60.23
2023-03-03T08:34:57.891Z,61.26
2023-03-03T08:36:02.364Z,60.32
2023-03-03T08:37:05.305Z,61.05
2023-03-03T08:38:08.364Z,62.02
2023-03-03T08:39:10.835Z,60.45
2023-03-03T08:40:13.934Z,60.15
2023-03-03T08:41:16.957Z,58.95
2023-03-03T08:42:19.119Z,58.62
2023-03-03T08:43:22.248Z,58.62
2023-03-03T08:44:25.002Z,59.77
2023-03-03T08:45:28.901Z,60.03
2023-03-03T08:46:31.332Z,60.19
2023-03-03T08:47:33.814Z,65.50
2023-03-03T08:48:36.042Z,68.84
2023-03-03T08:49:39.392Z,64.84
2023-03-03T08:50:42.876Z,59.83
2023-03-03T08:51:45.393Z,54.65
2023-03-03T08:52:48.032Z,53.77
2023-03-03T08:53:50.952Z,53.51
2023-03-03T08:54:54.774Z,59.44
2023-03-03T08:55:57.150Z,55.98
2023-03-03T08:56:59.513Z,53.80
2023-03-03T08:58:01.861Z,54.65
2023-03-03T08:59:04.596Z,53.83
2023-03-03T09:00:10.806Z,53.47
2023-03-03T09:01:16.276Z,61.02
2023-03-03T09:02:19.372Z,60.66
2023-03-03T09:03:22.478Z,53.17
2023-03-03T09:04:25.899Z,52.02
2023-03-03T09:05:28.473Z,52.88
2023-03-03T09:06:30.705Z,53.33
2023-03-03T09:07:33.240Z,54.31
2023-03-03T09:08:36.112Z,54.03
2023-03-03T09:09:39.647Z,54.25
2023-03-03T09:10:42.408Z,53.45
2023-03-03T09:11:47.558Z,54.32
2023-03-03T09:12:50.225Z,53.70
2023-03-03T09:14:09.096Z,54.00
2023-03-03T09:15:20.910Z,54.67
2023-03-03T09:16:24.485Z,54.34
2023-03-03T09:17:31.591Z,54.24
2023-03-03T09:18:38.883Z,54.66
2023-03-03T09:19:44.348Z,54.83
2023-03-03T09:20:49.451Z,54.90
2023-03-03T09:21:56.692Z,55.15
2023-03-03T09:23:01.937Z,54.33
2023-03-03T09:24:07.362Z,54.15
2023-03-03T09:25:16.118Z,54.35
2023-03-03T09:26:31.618Z,54.46
2023-03-03T09:27:37.814Z,53.90
2023-03-03T09:28:40.160Z,53.47
2023-03-03T09:29:42.294Z,52.68
2023-03-03T09:30:49.057Z,53.30
2023-03-03T09:31:58.751Z,53.54
2023-03-03T09:33:04.398Z,53.55
2023-03-03T09:34:16.845Z,53.14
2023-03-03T09:35:40.407Z,53.22
2023-03-03T09:36:44.038Z,54.16
2023-03-03T09:37:49.945Z,54.20
2023-03-03T09:38:53.732Z,54.02
2023-03-03T09:39:57.287Z,53.80
2023-03-03T09:41:16.820Z,54.46
2023-03-03T09:42:43.569Z,54.42
2023-03-03T09:43:49.515Z,53.51
2023-03-03T09:45:15.261Z,53.83
2023-03-03T09:46:24.217Z,54.04
2023-03-03T09:47:45.809Z,53.95
2023-03-03T09:49:07.235Z,54.30
2023-03-03T09:50:16.827Z,54.41
2023-03-03T09:51:43.807Z,54.49
2023-03-03T09:53:02.084Z,54.66
2023-03-03T09:54:20.163Z,55.22
2023-03-03T09:55:38.480Z,55.62
2023-03-03T09:56:50.661Z,55.82
2023-03-03T09:58:11.629Z,55.32
2023-03-03T10:01:04.567Z,55.61
2023-03-03T10:02:17.146Z,55.30
2023-03-03T10:04:55.167Z,55.27
2023-03-03T10:06:17.245Z,55.33
2023-03-03T10:07:38.159Z,53.63
2023-03-03T10:09:09.544Z,53.62
2023-03-03T10:10:29.188Z,52.19
2023-03-03T10:11:43.865Z,53.41
2023-03-03T10:12:58.658Z,52.54
2023-03-03T10:14:21.178Z,53.03
2023-03-03T10:15:40.540Z,53.59
2023-03-03T10:17:08.106Z,54.27
2023-03-03T10:18:33.412Z,54.53
2023-03-03T10:19:39.329Z,54.18
2023-03-03T10:20:55.160Z,54.40
2023-03-03T10:22:29.922Z,54.83
2023-03-03T10:23:41.944Z,54.67
2023-03-03T10:25:07.624Z,54.04
2023-03-03T10:26:14.672Z,54.28
2023-03-03T10:27:32.620Z,55.54
2023-03-03T10:28:51.104Z,56.14
2023-03-03T10:30:38.310Z,56.16
2023-03-03T10:31:36.328Z,54.95
2023-03-03T10:32:42.599Z,55.11
2023-03-03T10:34:08.564Z,55.19
2023-03-03T10:35:29.703Z,55.40
2023-03-03T10:36:38.599Z,54.78
2023-03-03T10:37:53.692Z,54.91
2023-03-03T10:41:10.036Z,53.63
2023-03-03T10:42:32.670Z,54.05
2023-03-03T10:43:44.166Z,54.03
2023-03-03T10:45:11.743Z,53.91
2023-03-03T10:46:22.373Z,53.81
2023-03-03T10:47:53.662Z,54.14
2023-03-03T10:49:23.793Z,54.56
2023-03-03T10:50:59.044Z,54.79
2023-03-03T10:52:21.633Z,54.84
2023-03-03T10:53:42.905Z,54.52
2023-03-03T10:55:19.191Z,54.91
2023-03-03T10:56:52.914Z,55.08
2023-03-03T10:58:03.155Z,54.06
2023-03-03T10:59:43.608Z,54.34
2023-03-03T11:01:08.119Z,55.39
2023-03-03T11:02:16.678Z,54.38
2023-03-03T11:03:38.056Z,54.68
2023-03-03T11:04:46.720Z,54.27
2023-03-03T11:06:06.736Z,53.34
2023-03-03T11:07:15.435Z,53.83
2023-03-03T11:08:24.399Z,55.36
2023-03-03T11:09:37.245Z,55.14
2023-03-03T11:11:06.177Z,55.89
2023-03-03T11:12:33.940Z,55.88
2023-03-03T11:14:15.156Z,55.64
2023-03-03T11:15:33.399Z,56.44
2023-03-03T11:16:46.894Z,56.41
2023-03-03T11:18:25.587Z,55.87
2023-03-03T11:19:29.622Z,56.56
2023-03-03T11:20:35.689Z,55.66
2023-03-03T11:21:45.138Z,55.76
2023-03-03T11:23:00.355Z,55.21
2023-03-03T11:24:10.229Z,55.49
2023-03-03T11:25:22.316Z,55.03
2023-03-03T11:26:40.155Z,54.73
2023-03-03T11:28:02.194Z,54.70
2023-03-03T11:29:11.248Z,54.29
2023-03-03T11:30:26.198Z,54.85
2023-03-03T11:31:54.009Z,54.27
2023-03-03T11:33:22.291Z,54.35
2023-03-03T11:34:37.431Z,54.75
2023-03-03T11:35:52.012Z,55.04
2023-03-03T11:37:09.626Z,54.21
2023-03-03T11:38:27.810Z,53.95
2023-03-03T11:39:30.895Z,54.79
2023-03-03T11:40:43.297Z,53.86
2023-03-03T11:42:00.387Z,53.84
2023-03-03T11:43:08.887Z,54.07
2023-03-03T11:44:42.229Z,53.66
2023-03-03T11:45:53.988Z,53.75
2023-03-03T11:47:00.685Z,53.16
2023-03-03T11:48:09.591Z,53.55
2023-03-03T11:49:18.914Z,53.04
2023-03-03T11:50:24.903Z,52.96
2023-03-03T11:51:49.566Z,52.75
2023-03-03T11:53:10.842Z,52.22
2023-03-03T11:54:29.086Z,51.96
2023-03-03T11:55:37.546Z,52.39
2023-03-03T11:56:42.576Z,51.58
2023-03-03T11:57:48.925Z,51.46
2023-03-03T11:59:07.520Z,51.83
2023-03-03T12:00:32.542Z,52.42
2023-03-03T12:01:56.092Z,52.52
2023-03-03T12:03:17.467Z,52.48
2023-03-03T12:04:35.402Z,52.27
2023-03-03T12:07:36.151Z,52.01
2023-03-03T12:08:50.898Z,52.18
2023-03-03T12:10:03.237Z,53.21
2023-03-03T12:11:28.301Z,52.29
2023-03-03T12:12:34.185Z,52.28
2023-03-03T12:13:41.072Z,53.67
2023-03-03T12:15:10.259Z,52.79
2023-03-03T12:16:25.462Z,53.01
2023-03-03T12:17:35.149Z,52.97
2023-03-03T12:18:58.725Z,52.33
2023-03-03T12:20:07.340Z,52.61
2023-03-03T12:21:17.272Z,52.55
2023-03-03T12:22:23.263Z,52.70
2023-03-03T12:23:45.234Z,52.68
2023-03-03T12:25:05.029Z,52.95
2023-03-03T12:27:30.732Z,53.51
2023-03-03T12:29:56.263Z,53.08
2023-03-03T12:31:11.348Z,53.16
2023-03-03T12:32:19.539Z,52.65
2023-03-03T12:33:40.510Z,53.11
2023-03-03T12:34:49.425Z,52.92
2023-03-03T12:36:16.753Z,53.71
2023-03-03T12:37:25.571Z,53.26
2023-03-03T12:38:49.213Z,54.09
2023-03-03T12:41:19.853Z,53.68
2023-03-03T12:42:31.945Z,53.43
2023-03-03T12:43:57.581Z,53.60
2023-03-03T12:45:03.525Z,53.36
2023-03-03T12:46:29.161Z,53.48
2023-03-03T12:47:45.203Z,53.48
2023-03-03T12:48:47.909Z,54.41
2023-03-03T12:50:26.669Z,54.04
2023-03-03T12:51:58.156Z,54.21
2023-03-03T12:53:13.991Z,54.12
2023-03-03T12:54:26.147Z,55.16
2023-03-03T12:55:38.916Z,54.52
2023-03-03T12:56:54.220Z,55.05
2023-03-03T12:58:00.235Z,55.49
2023-03-03T12:59:13.413Z,55.78
2023-03-03T13:00:23.034Z,56.07
2023-03-03T13:01:29.751Z,56.10
2023-03-03T13:03:07.607Z,55.62
2023-03-03T13:04:29.053Z,55.47
2023-03-03T13:05:50.361Z,55.59
2023-03-03T13:06:59.328Z,55.96
2023-03-03T13:08:30.472Z,56.49
2023-03-03T13:09:57.893Z,55.75
2023-03-03T13:11:23.656Z,55.27
2023-03-03T13:12:41.344Z,55.17
2023-03-03T13:13:59.270Z,56.18
2023-03-03T13:15:18.355Z,56.15
2023-03-03T13:16:41.103Z,55.34
2023-03-03T13:17:49.302Z,55.27
2023-03-03T13:19:04.321Z,55.61
2023-03-03T13:20:31.900Z,55.58
2023-03-03T13:22:01.546Z,55.34
2023-03-03T13:23:38.142Z,55.87
2023-03-03T13:25:06.039Z,55.88
2023-03-03T13:26:18.409Z,55.93
2023-03-03T13:27:24.423Z,55.28
2023-03-03T13:28:42.439Z,55.17
2023-03-03T13:30:00.605Z,56.07
2023-03-03T13:31:24.918Z,55.36
2023-03-03T13:32:51.733Z,56.03
2023-03-03T13:33:56.578Z,56.03
2023-03-03T13:35:02.551Z,55.67
2023-03-03T13:37:21.954Z,55.11
2023-03-03T13:38:44.098Z,54.37
2023-03-03T13:40:00.130Z,54.60
2023-03-03T13:41:31.623Z,54.76
2023-03-03T13:43:00.397Z,54.07
2023-03-03T13:44:25.648Z,53.90
2023-03-03T13:45:52.810Z,54.61
2023-03-03T13:47:18.857Z,54.17
2023-03-03T13:48:31.332Z,54.94
2023-03-03T13:49:43.066Z,55.21
2023-03-03T13:50:57.575Z,54.93
2023-03-03T13:52:12.206Z,54.97
2023-03-03T13:53:41.157Z,55.01
2023-03-03T13:55:09.742Z,54.47
2023-03-03T13:56:28.987Z,55.71
2023-03-03T13:57:52.747Z,54.73
2023-03-03T13:59:17.714Z,54.17
2023-03-03T14:00:33.049Z,55.37
2023-03-03T14:01:54.300Z,54.29
2023-03-03T14:03:06.270Z,54.67
2023-03-03T14:04:33.661Z,54.75
2023-03-03T14:05:42.341Z,55.12
2023-03-03T14:06:49.385Z,54.67
2023-03-03T14:08:01.836Z,54.29
2023-03-03T14:09:29.201Z,53.81
2023-03-03T14:10:44.313Z,54.11
2023-03-03T14:11:56.503Z,52.86
2023-03-03T14:13:17.120Z,52.92
2023-03-03T14:14:41.861Z,53.32
2023-03-03T14:16:04.667Z,53.52
2023-03-03T14:17:25.243Z,53.73
2023-03-03T14:18:37.707Z,54.42
2023-03-03T14:19:48.841Z,53.39
2023-03-03T14:20:54.200Z,54.17
2023-03-03T14:22:25.218Z,53.81
2023-03-03T14:23:55.790Z,54.00
2023-03-03T14:25:12.093Z,53.39
2023-03-03T14:26:14.973Z,53.48
2023-03-03T14:27:26.501Z,53.98
2023-03-03T14:28:39.431Z,53.77
2023-03-03T14:29:41.907Z,54.10
2023-03-03T14:30:44.533Z,54.53
2023-03-03T14:31:47.502Z,54.84
2023-03-03T14:33:13.730Z,54.63
2023-03-03T14:34:40.109Z,54.67
2023-03-03T14:35:58.008Z,54.28
2023-03-03T14:37:10.760Z,53.69
2023-03-03T14:38:24.186Z,53.45
2023-03-03T14:39:37.063Z,53.84
2023-03-03T14:40:44.650Z,53.75
2023-03-03T14:41:47.572Z,53.65
2023-03-03T14:42:57.108Z,53.89
2023-03-03T14:44:23.058Z,53.99
2023-03-03T14:45:39.264Z,54.34
2023-03-03T14:46:44.390Z,54.69
2023-03-03T14:47:47.835Z,54.88
2023-03-03T14:48:53.684Z,54.37
2023-03-03T14:50:00.175Z,54.11
2023-03-03T14:51:29.573Z,55.30
2023-03-03T14:52:34.467Z,54.69
2023-03-03T14:53:40.156Z,54.88
2023-03-03T14:54:51.979Z,55.68
2023-03-03T14:55:55.730Z,55.65
2023-03-03T14:57:13.907Z,56.25
2023-03-03T14:58:41.153Z,56.68
2023-03-03T15:00:02.906Z,57.18